Time;durP1;ratioP1;P1;durP2;ratioP2;P2;SDS_P1;SDS_P2;PMS_P1;PMS_P2;Temp;Humidity;BMP_temperature;BMP_pressure;BME280_temperature;BME280_humidity;BME280_pressure;Samples;Min_cycle;Max_cycle;Signal;HPM_P1;HPM_P2
2023/08/22 00:01:16;;;;;;;9.20;5.90;;;;;;;22.97;70.49;99273.94;79339;1295;3013780;-63
2023/08/22 00:03:42;;;;;;;8.00;6.70;;;;;;;22.70;71.75;99275.63;79288;1296;3011938;-62
2023/08/22 00:06:10;;;;;;;12.20;6.40;;;;;;;22.44;72.99;99279.60;78016;1297;3028678;-60
2023/08/22 00:08:37;;;;;;;8.00;6.40;;;;;;;22.25;73.63;99274.31;79269;1300;3014074;-64
2023/08/22 00:11:04;;;;;;;6.10;4.30;;;;;;;22.15;74.06;99271.27;79201;1300;3011866;-62
2023/08/22 00:13:32;;;;;;;11.30;5.60;;;;;;;22.57;73.11;99275.89;78104;1297;3028480;-61
2023/08/22 00:15:59;;;;;;;8.70;5.90;;;;;;;22.84;71.65;99277.45;79242;1297;3012847;-62
2023/08/22 00:18:27;;;;;;;6.60;5.80;;;;;;;22.89;71.22;99279.14;79303;1297;3011492;-62
2023/08/22 00:20:55;;;;;;;8.60;6.20;;;;;;;22.74;71.69;99278.09;78082;1299;3052537;-62
2023/08/22 00:23:21;;;;;;;8.00;6.30;;;;;;;22.50;72.55;99282.15;79284;1300;3012986;-61
2023/08/22 00:25:48;;;;;;;9.40;6.00;;;;;;;22.26;73.48;99280.55;79310;1300;3011629;-60
2023/08/22 00:28:16;;;;;;;7.70;6.40;;;;;;;22.12;73.88;99280.13;78029;1300;3028771;-64
2023/08/22 00:30:43;;;;;;;13.50;6.50;;;;;;;21.98;74.57;99280.98;79400;1297;3013594;-61
2023/08/22 00:33:10;;;;;;;9.20;4.90;;;;;;;21.87;75.19;99277.73;79208;1296;3013059;-62
2023/08/22 00:35:38;;;;;;;5.60;4.90;;;;;;;22.34;73.88;99279.00;78013;1300;3052239;-61
2023/08/22 00:38:04;;;;;;;7.30;5.60;;;;;;;22.68;72.39;99280.31;79216;1300;3013185;-63
2023/08/22 00:40:31;;;;;;;7.40;6.30;;;;;;;22.61;72.35;99279.98;79174;1301;3011700;-67
2023/08/22 00:42:59;;;;;;;10.60;6.20;;;;;;;22.41;72.87;99285.63;77993;1297;3026897;-62
2023/08/22 00:45:25;;;;;;;12.60;6.00;;;;;;;22.14;73.75;99279.36;79258;1297;3013328;-62
2023/08/22 00:47:53;;;;;;;11.50;6.60;;;;;;;21.97;74.62;99275.23;79179;1297;3013360;-64
2023/08/22 00:50:21;;;;;;;8.20;6.80;;;;;;;21.77;75.55;99278.36;78113;1296;3052979;-63
2023/08/22 00:52:48;;;;;;;13.50;6.80;;;;;;;21.57;76.67;99282.19;79199;1300;3012837;-62
2023/08/22 00:55:15;;;;;;;10.40;4.90;;;;;;;21.41;77.30;99280.41;79352;1300;3011692;-65
2023/08/22 00:57:43;;;;;;;9.90;5.30;;;;;;;21.93;75.80;99277.58;78003;1297;3026891;-63
2023/08/22 01:00:10;;;;;;;12.20;6.00;;;;;;;22.27;74.01;99283.83;79239;1297;3013111;-64
2023/08/22 01:02:38;;;;;;;8.60;6.00;;;;;;;22.23;73.63;99285.55;79476;1295;3011636;-63
2023/08/22 01:05:07;;;;;;;11.60;6.50;;;;;;;22.04;74.61;99289.99;78352;1297;3052436;-63
2023/08/22 01:07:38;;;;;;;8.30;6.70;;;;;;;21.90;74.77;99289.36;79335;1301;3013518;-61
2023/08/22 01:10:07;;;;;;;9.90;6.70;;;;;;;21.69;75.68;99289.86;78012;1301;3051123;-61
2023/08/22 01:12:57;;;;;;;10.00;6.50;;;;;;;21.50;76.54;99288.41;79456;1295;3011855;-62
2023/08/22 01:15:26;;;;;;;7.60;4.90;;;;;;;21.37;77.55;99286.09;78133;1301;3053357;-62
2023/08/22 01:17:54;;;;;;;7.60;5.50;;;;;;;21.90;75.70;99285.30;79532;1298;3012954;-63
2023/08/22 01:20:21;;;;;;;12.80;5.80;;;;;;;22.26;74.23;99287.15;79382;1311;3011654;-63
2023/08/22 01:22:49;;;;;;;11.80;6.20;;;;;;;22.10;74.32;99284.69;78317;1295;3068253;-60
2023/08/22 01:25:16;;;;;;;10.30;6.50;;;;;;;21.72;75.54;99286.38;79460;1295;3013681;-62
2023/08/22 01:28:08;;;;;;;10.90;6.80;;;;;;;21.54;76.29;99286.40;79411;1295;3011817;-62
2023/08/22 01:30:43;;;;;;;11.90;7.10;;;;;;;21.19;78.17;99290.81;78164;1298;3055104;-62
2023/08/22 01:33:14;;;;;;;8.00;6.20;;;;;;;21.10;78.70;99294.06;78223;1298;3049594;-60
2023/08/22 01:35:41;;;;;;;9.20;5.00;;;;;;;21.03;79.00;99290.04;79483;1299;3013034;-62
2023/08/22 01:38:08;;;;;;;7.80;4.50;;;;;;;21.62;77.34;99289.22;79248;1295;3011980;-64
2023/08/22 01:40:36;;;;;;;11.30;5.50;;;;;;;22.04;74.81;99291.40;78176;1298;3051639;-62
2023/08/22 01:43:03;;;;;;;6.40;5.80;;;;;;;22.08;74.26;99290.55;79576;1295;3013357;-62
2023/08/22 01:45:29;;;;;;;8.10;5.90;;;;;;;21.83;74.75;99292.81;79398;1295;3011605;-63
2023/08/22 01:47:57;;;;;;;8.80;6.10;;;;;;;21.61;75.51;99291.27;78226;1298;3049417;-61
2023/08/22 01:50:24;;;;;;;10.20;6.00;;;;;;;21.42;76.09;99298.34;79340;1298;3013236;-62
2023/08/22 01:52:50;;;;;;;8.60;6.30;;;;;;;21.26;76.60;99298.65;79471;1298;3011618;-63
2023/08/22 01:55:19;;;;;;;4.80;4.00;;;;;;;21.12;77.39;99300.63;78181;1298;3028061;-63
2023/08/22 01:57:46;;;;;;;7.10;5.20;;;;;;;21.55;76.73;99296.08;79248;1300;3013843;-63
2023/08/22 02:00:12;;;;;;;10.30;5.40;;;;;;;21.96;74.76;99292.05;79304;1294;3011849;-61
2023/08/22 02:02:41;;;;;;;8.70;5.60;;;;;;;21.96;74.60;99288.38;78209;1298;3049287;-64
2023/08/22 02:05:07;;;;;;;8.70;5.90;;;;;;;21.79;74.78;99288.11;79477;1298;3012829;-63
2023/08/22 02:07:34;;;;;;;7.80;6.10;;;;;;;21.51;76.01;99288.96;79435;1298;3011635;-65
2023/08/22 02:10:04;;;;;;;7.90;6.20;;;;;;;21.28;76.96;99294.14;78381;1295;3025959;-62
2023/08/22 02:12:31;;;;;;;11.70;6.70;;;;;;;21.10;77.47;99290.02;79551;1295;3012690;-64
2023/08/22 02:15:00;;;;;;;7.00;4.30;;;;;;;20.92;78.32;99289.09;78813;1295;3011728;-62
2023/08/22 02:17:27;;;;;;;7.60;4.80;;;;;;;21.32;77.56;99286.02;79500;1298;3013546;-63
2023/08/22 02:19:53;;;;;;;11.90;5.90;;;;;;;21.66;75.95;99283.95;79297;1298;3011652;-63
2023/08/22 02:22:21;;;;;;;6.80;5.40;;;;;;;21.56;75.96;99283.86;78310;1298;3026473;-61
2023/08/22 02:24:48;;;;;;;11.80;5.70;;;;;;;21.41;76.28;99283.48;79491;1298;3013043;-61
2023/08/22 02:27:14;;;;;;;11.50;6.50;;;;;;;21.19;77.17;99282.69;79382;1298;3012132;-63
2023/08/22 02:29:45;;;;;;;8.50;6.40;;;;;;;21.02;77.66;99279.35;78194;1295;3049436;-62
2023/08/22 02:32:11;;;;;;;7.80;6.20;;;;;;;20.85;78.50;99281.47;79646;1295;3018531;-62
2023/08/22 02:34:38;;;;;;;6.40;4.70;;;;;;;20.69;79.57;99278.41;79213;1299;3011640;-64
2023/08/22 02:37:06;;;;;;;7.90;4.90;;;;;;;21.17;78.31;99282.73;78135;1299;3026237;-62
2023/08/22 02:39:32;;;;;;;7.90;5.60;;;;;;;21.41;76.84;99284.75;79427;1294;3019536;-63
2023/08/22 02:41:59;;;;;;;9.40;5.70;;;;;;;21.44;76.59;99287.92;79405;1298;3011740;-63
2023/08/22 02:44:27;;;;;;;13.80;6.50;;;;;;;21.23;77.26;99290.42;78066;1299;3028739;-61
2023/08/22 02:46:53;;;;;;;8.00;6.00;;;;;;;20.97;78.20;99289.10;79382;1294;3012885;-63
2023/08/22 02:49:20;;;;;;;11.00;6.60;;;;;;;20.85;78.82;99288.80;79369;1300;3011524;-61
2023/08/22 02:51:48;;;;;;;9.60;4.50;;;;;;;20.80;78.97;99285.23;78009;1300;3028507;-62
2023/08/22 02:54:14;;;;;;;12.20;5.60;;;;;;;21.21;78.24;99285.27;79369;1299;3013060;-63
2023/08/22 02:56:41;;;;;;;12.40;6.00;;;;;;;21.58;76.51;99282.16;79210;1299;3011524;-62
2023/08/22 02:59:10;;;;;;;11.70;5.80;;;;;;;21.58;76.17;99278.42;78098;1300;3028267;-61
2023/08/22 03:01:36;;;;;;;10.10;6.30;;;;;;;21.49;75.94;99282.81;79402;1295;3020981;-62
2023/08/22 03:04:03;;;;;;;12.70;6.20;;;;;;;21.32;76.47;99282.14;79395;1297;3011903;-63
2023/08/22 03:06:31;;;;;;;8.80;6.80;;;;;;;21.14;77.12;99291.39;78349;1298;3028366;-62
2023/08/22 03:08:58;;;;;;;9.10;6.60;;;;;;;20.94;77.95;99287.76;79384;1294;3013675;-64
2023/08/22 03:11:24;;;;;;;8.60;5.20;;;;;;;20.87;78.47;99289.79;79284;1295;3012035;-63
2023/08/22 03:13:52;;;;;;;6.00;5.00;;;;;;;21.31;78.10;99291.89;78008;1300;3028411;-61
2023/08/22 03:16:19;;;;;;;10.40;5.90;;;;;;;21.82;75.80;99285.33;79284;1300;3013486;-62
2023/08/22 03:18:46;;;;;;;9.70;5.50;;;;;;;21.87;75.09;99281.48;79247;1300;3013023;-64
2023/08/22 03:21:14;;;;;;;7.80;5.80;;;;;;;21.69;75.61;99280.27;78113;1299;3027937;-62
2023/08/22 03:23:41;;;;;;;8.20;7.00;;;;;;;21.49;76.03;99283.99;79269;1297;3013426;-64
2023/08/22 03:26:10;;;;;;;11.10;6.70;;;;;;;21.25;76.75;99286.04;79317;1294;3011659;-64
2023/08/22 03:28:39;;;;;;;8.90;6.40;;;;;;;21.06;77.88;99286.48;78074;1300;3049588;-62
2023/08/22 03:31:06;;;;;;;7.60;5.10;;;;;;;20.91;78.74;99280.98;79255;1294;3013810;-64
2023/08/22 03:33:33;;;;;;;8.70;5.50;;;;;;;21.46;77.42;99277.52;79329;1298;3011775;-64
2023/08/22 03:36:03;;;;;;;7.30;5.70;;;;;;;21.92;74.95;99273.11;77985;1300;3053189;-63
2023/08/22 03:38:30;;;;;;;7.70;5.90;;;;;;;21.90;74.48;99277.66;79301;1295;3014156;-63
2023/08/22 03:40:57;;;;;;;9.90;6.50;;;;;;;21.73;74.87;99280.80;79243;1299;3011665;-64
2023/08/22 03:43:26;;;;;;;9.40;6.90;;;;;;;21.41;76.13;99283.45;77998;1299;3049350;-62
2023/08/22 03:45:53;;;;;;;11.00;6.20;;;;;;;21.26;76.92;99292.40;79374;1299;3013923;-64
2023/08/22 03:48:19;;;;;;;9.50;7.60;;;;;;;21.01;77.99;99287.23;79216;1297;3012062;-62
2023/08/22 03:50:49;;;;;;;8.60;5.20;;;;;;;20.91;78.61;99287.75;78088;1299;3053358;-63
2023/08/22 03:53:16;;;;;;;9.60;5.50;;;;;;;21.30;77.89;99286.75;79335;1300;3013095;-62
2023/08/22 03:55:43;;;;;;;9.40;6.10;;;;;;;21.78;75.90;99288.19;79298;1300;3011743;-63
2023/08/22 03:58:11;;;;;;;8.20;6.30;;;;;;;21.82;75.04;99294.33;78121;1300;3028816;-61
2023/08/22 04:00:38;;;;;;;11.80;6.60;;;;;;;21.65;75.88;99291.21;79276;1298;3020963;-62
2023/08/22 04:03:04;;;;;;;11.10;7.20;;;;;;;21.57;75.83;99294.06;79481;1298;3011709;-63
2023/08/22 04:05:32;;;;;;;8.90;7.00;;;;;;;21.49;76.09;99295.79;78166;1298;3028972;-61
2023/08/22 04:07:59;;;;;;;10.90;7.60;;;;;;;21.41;75.90;99293.48;79436;1298;3013068;-62
2023/08/22 04:10:26;;;;;;;10.00;5.20;;;;;;;21.35;76.45;99287.49;79448;1298;3011964;-63
2023/08/22 04:12:53;;;;;;;9.50;5.60;;;;;;;21.87;75.41;99287.39;78163;1298;3027462;-61
2023/08/22 04:15:20;;;;;;;13.20;6.10;;;;;;;22.38;73.22;99281.77;79496;1295;3018436;-62
2023/08/22 04:17:47;;;;;;;13.60;6.40;;;;;;;22.49;72.50;99282.83;79447;1298;3011634;-62
2023/08/22 04:20:15;;;;;;;13.10;7.10;;;;;;;22.28;72.67;99283.16;78103;1301;3026443;-62
2023/08/22 04:22:42;;;;;;;9.70;7.30;;;;;;;22.18;72.98;99283.42;79365;1298;3012880;-63
2023/08/22 04:25:09;;;;;;;10.60;7.40;;;;;;;22.03;73.57;99280.83;79279;1297;3011640;-63
2023/08/22 04:27:37;;;;;;;12.20;7.40;;;;;;;21.91;73.98;99282.09;78059;1301;3026679;-61
2023/08/22 04:30:07;;;;;;;11.20;7.30;;;;;;;21.81;74.13;99284.83;79409;1296;3021163;-64
2023/08/22 04:32:36;;;;;;;8.50;6.00;;;;;;;21.79;74.64;99282.55;78848;1296;3011706;-63
2023/08/22 04:35:05;;;;;;;11.80;6.40;;;;;;;22.30;73.30;99284.60;79348;1301;3013649;-62
2023/08/22 04:37:32;;;;;;;9.70;6.70;;;;;;;22.86;71.29;99282.69;79483;1296;3011316;-66
2023/08/22 04:40:01;;;;;;;15.10;7.50;;;;;;;23.04;70.44;99285.77;78110;1298;3051240;-63
2023/08/22 04:42:47;;;;;;;11.40;7.20;;;;;;;22.96;69.89;99285.74;78169;1297;3056813;-62
2023/08/22 04:45:16;;;;;;;10.70;7.00;;;;;;;22.85;69.97;99281.96;79497;1295;3013304;-64
2023/08/22 04:47:42;;;;;;;10.00;7.20;;;;;;;22.69;70.15;99284.25;79425;1296;3012638;-65
2023/08/22 04:50:11;;;;;;;13.40;7.30;;;;;;;22.56;70.43;99287.74;78255;1298;3052319;-64
2023/08/22 04:52:38;;;;;;;11.80;6.30;;;;;;;22.47;70.64;99286.05;79455;1298;3013414;-64
2023/08/22 04:55:07;;;;;;;15.40;7.50;;;;;;;22.43;70.60;99287.40;79386;1297;3013480;-64
2023/08/22 04:57:35;;;;;;;10.10;6.60;;;;;;;22.40;70.92;99290.19;77987;1299;3056723;-63
2023/08/22 05:00:03;;;;;;;6.30;4.30;;;;;;;22.42;71.37;99288.81;79213;1298;3013151;-64
2023/08/22 05:02:30;;;;;;;5.10;4.20;;;;;;;23.01;69.45;99284.60;79378;1296;3014094;-65
2023/08/22 05:04:58;;;;;;;8.00;4.00;;;;;;;23.63;67.40;99277.67;78070;1301;3051779;-65
2023/08/22 05:07:25;;;;;;;5.50;5.00;;;;;;;23.83;66.38;99278.59;79515;1297;3012938;-65
2023/08/22 05:09:53;;;;;;;8.20;5.00;;;;;;;23.81;66.26;99282.40;79426;1296;3011558;-65
2023/08/22 05:12:21;;;;;;;15.90;5.60;;;;;;;23.72;66.26;99286.84;78174;1298;3057419;-63
2023/08/22 05:14:48;;;;;;;9.80;6.20;;;;;;;23.58;66.67;99285.52;79476;1296;3013170;-62
2023/08/22 05:17:14;;;;;;;7.50;5.30;;;;;;;23.54;66.64;99283.30;79321;1301;3012151;-64
2023/08/22 05:19:42;;;;;;;8.20;5.30;;;;;;;23.42;66.33;99283.94;78172;1298;3026436;-62
2023/08/22 05:22:09;;;;;;;8.90;5.10;;;;;;;23.35;66.52;99285.10;79465;1298;3019344;-64
2023/08/22 05:24:37;;;;;;;7.70;4.30;;;;;;;23.22;66.27;99288.89;79500;1298;3013093;-63
2023/08/22 05:27:05;;;;;;;8.80;4.80;;;;;;;23.18;66.12;99280.27;78106;1299;3056702;-62
2023/08/22 05:29:32;;;;;;;14.00;5.10;;;;;;;23.23;66.51;99278.80;79359;1295;3012995;-64
2023/08/22 05:31:58;;;;;;;6.80;4.80;;;;;;;23.26;66.67;99272.41;79456;1296;3011469;-64
2023/08/22 05:34:27;;;;;;;6.70;5.10;;;;;;;23.32;66.40;99270.11;78153;1298;3026577;-63
2023/08/22 05:36:54;;;;;;;8.10;5.40;;;;;;;23.36;66.39;99269.48;79497;1298;3012670;-64
2023/08/22 05:39:20;;;;;;;6.90;5.50;;;;;;;23.46;66.29;99268.11;79542;1297;3013409;-64
2023/08/22 05:41:48;;;;;;;8.90;7.60;;;;;;;23.52;66.72;99265.69;78276;1298;3028403;-61
2023/08/22 05:44:16;;;;;;;10.20;7.40;;;;;;;23.50;67.18;99265.72;79379;1295;3012813;-63
2023/08/22 05:46:43;;;;;;;14.40;8.30;;;;;;;23.59;66.74;99263.04;79265;1294;3012784;-62
2023/08/22 05:49:11;;;;;;;15.80;8.60;;;;;;;23.67;66.48;99265.32;78264;1299;3052007;-64
2023/08/22 05:51:38;;;;;;;12.10;8.70;;;;;;;23.79;65.79;99264.91;79264;1300;3013902;-65
2023/08/22 05:54:05;;;;;;;14.10;9.50;;;;;;;23.88;65.07;99257.46;79375;1299;3011672;-63
2023/08/22 05:56:33;;;;;;;12.40;9.20;;;;;;;24.02;64.38;99258.80;78315;1299;3026262;-64
2023/08/22 05:59:00;;;;;;;12.60;7.80;;;;;;;24.15;64.00;99258.91;79213;1295;3012672;-63
2023/08/22 06:01:26;;;;;;;12.20;8.70;;;;;;;24.24;62.76;99258.63;79481;1294;3011898;-66
2023/08/22 06:03:54;;;;;;;10.20;8.30;;;;;;;24.29;59.96;99261.21;78214;1299;3052875;-70
2023/08/22 06:06:21;;;;;;;15.60;9.10;;;;;;;24.35;60.31;99262.05;79488;1300;3012715;-69
2023/08/22 06:08:49;;;;;;;12.40;8.20;;;;;;;24.39;60.71;99261.00;79536;1297;3011780;-63
2023/08/22 06:11:18;;;;;;;16.80;8.50;;;;;;;24.51;59.91;99259.36;78200;1294;3056545;-66
2023/08/22 06:13:45;;;;;;;15.30;8.40;;;;;;;24.61;58.61;99257.71;79292;1295;3013204;-64
2023/08/22 06:16:11;;;;;;;11.10;8.40;;;;;;;24.70;58.54;99259.18;79274;1301;3011928;-68
2023/08/22 06:18:39;;;;;;;15.40;9.40;;;;;;;24.80;58.35;99261.02;78155;1300;3028132;-65
2023/08/22 06:21:06;;;;;;;15.70;9.50;;;;;;;24.91;58.03;99261.80;79317;1298;3012890;-64
2023/08/22 06:23:32;;;;;;;18.00;9.90;;;;;;;25.04;58.67;99264.29;79402;1299;3012964;-68
2023/08/22 06:26:01;;;;;;;15.00;9.80;;;;;;;25.13;57.55;99266.61;78008;1300;3056705;-65
2023/08/22 06:28:30;;;;;;;17.10;10.40;;;;;;;25.26;58.18;99262.13;79339;1294;3015881;-68
2023/08/22 06:31:03;;;;;;;15.00;9.90;;;;;;;25.35;59.09;99257.08;79460;1295;3014009;-66
2023/08/22 06:33:32;;;;;;;19.00;10.50;;;;;;;25.43;58.72;99256.52;78283;1299;3054183;-64
2023/08/22 06:35:59;;;;;;;19.30;10.30;;;;;;;25.46;56.95;99252.80;79242;1300;3013004;-63
2023/08/22 06:38:26;;;;;;;16.90;10.80;;;;;;;25.52;58.03;99252.06;79315;1295;3011626;-65
2023/08/22 06:40:53;;;;;;;16.70;10.30;;;;;;;25.58;57.52;99253.27;77975;1302;3028423;-65
2023/08/22 06:43:22;;;;;;;16.00;8.60;;;;;;;25.58;57.57;99253.64;79525;1301;3013215;-63
2023/08/22 06:45:48;;;;;;;16.30;9.50;;;;;;;25.60;57.01;99253.16;79257;1301;3011726;-67
2023/08/22 06:48:17;;;;;;;26.30;9.50;;;;;;;25.54;57.13;99258.27;78366;1300;3052888;-64
2023/08/22 06:50:44;;;;;;;13.20;8.90;;;;;;;25.60;57.41;99258.42;79578;1298;3012603;-68
2023/08/22 06:53:10;;;;;;;13.60;7.90;;;;;;;25.63;57.54;99260.84;79481;1295;3013161;-69
2023/08/22 06:55:38;;;;;;;11.50;6.60;;;;;;;25.71;57.70;99260.14;78334;1298;3056208;-69
2023/08/22 06:58:07;;;;;;;8.40;6.40;;;;;;;25.78;56.94;99262.91;79605;1297;3018398;-65
2023/08/22 07:00:33;;;;;;;14.50;6.50;;;;;;;25.76;56.95;99259.77;79371;1297;3011706;-67
2023/08/22 07:03:01;;;;;;;8.80;6.40;;;;;;;25.68;56.08;99262.77;79097;1300;3051893;-67
2023/08/22 07:05:28;;;;;;;9.90;6.50;;;;;;;25.62;56.15;99259.54;79892;1300;3018545;-63
2023/08/22 07:07:54;;;;;;;10.60;6.30;;;;;;;25.65;56.60;99256.46;79362;1299;3012205;-66
2023/08/22 07:10:22;;;;;;;8.30;6.90;;;;;;;25.73;56.75;99258.80;78153;1300;3026388;-67
2023/08/22 07:12:49;;;;;;;11.50;7.20;;;;;;;25.74;56.90;99252.45;79395;1300;3019885;-68
2023/08/22 07:15:15;;;;;;;8.00;6.80;;;;;;;25.83;56.92;99247.92;79366;1297;3011879;-68
2023/08/22 07:17:43;;;;;;;9.30;6.40;;;;;;;25.90;56.13;99239.89;78280;1300;3026107;-69
2023/08/22 07:20:10;;;;;;;12.10;7.10;;;;;;;25.96;56.29;99240.52;79485;1298;3012979;-67
2023/08/22 07:22:37;;;;;;;14.60;6.40;;;;;;;26.03;55.62;99241.43;79388;1296;3013432;-63
2023/08/22 07:25:05;;;;;;;11.20;8.70;;;;;;;26.20;55.15;99239.23;78204;1300;3026468;-63
2023/08/22 07:27:32;;;;;;;11.90;7.40;;;;;;;26.24;53.69;99243.23;79520;1296;3012947;-67
2023/08/22 07:29:59;;;;;;;12.60;7.60;;;;;;;26.29;52.38;99244.30;79455;1300;3011786;-66
2023/08/22 07:32:28;;;;;;;11.40;7.70;;;;;;;26.33;51.14;99244.19;78151;1300;3052598;-68
2023/08/22 07:34:54;;;;;;;14.20;8.40;;;;;;;26.37;52.03;99244.73;79561;1300;3013142;-69
2023/08/22 07:37:21;;;;;;;11.60;8.20;;;;;;;26.44;51.82;99242.73;79425;1298;3011699;-67
2023/08/22 07:39:48;;;;;;;13.00;8.20;;;;;;;26.54;50.86;99236.17;78191;1300;3056004;-66
2023/08/22 07:42:16;;;;;;;15.90;7.20;;;;;;;26.63;50.10;99233.15;79490;1298;3013283;-71
2023/08/22 07:44:43;;;;;;;15.90;7.90;;;;;;;26.68;48.17;99229.38;79553;1296;3013979;-69
2023/08/22 07:47:11;;;;;;;12.20;8.20;;;;;;;26.79;48.61;99227.73;78226;1300;3053132;-69
2023/08/22 07:49:38;;;;;;;14.80;8.50;;;;;;;26.89;48.45;99224.66;79404;1300;3019397;-69
2023/08/22 07:52:04;;;;;;;14.60;8.70;;;;;;;26.95;47.78;99225.23;79456;1297;3011830;-67
2023/08/22 07:54:32;;;;;;;17.50;10.30;;;;;;;27.04;47.93;99230.33;78268;1300;3028375;-68
2023/08/22 07:57:00;;;;;;;18.30;10.20;;;;;;;27.11;47.72;99229.04;79386;1297;3012727;-69
2023/08/22 07:59:26;;;;;;;19.80;11.40;;;;;;;27.26;47.74;99222.23;79468;1300;3012874;-70
2023/08/22 08:01:54;;;;;;;15.30;9.90;;;;;;;27.35;47.75;99218.98;78214;1300;3052146;-69
2023/08/22 08:04:21;;;;;;;14.50;9.70;;;;;;;27.41;47.41;99216.77;79401;1300;3018302;-73
2023/08/22 08:06:47;;;;;;;15.10;8.50;;;;;;;27.42;46.56;99216.98;79412;1299;3011864;-68
2023/08/22 08:09:15;;;;;;;16.20;8.70;;;;;;;27.32;46.84;99213.86;78128;1304;3029029;-66
2023/08/22 08:11:42;;;;;;;14.10;8.80;;;;;;;27.37;47.38;99220.05;79541;1301;3013202;-67
2023/08/22 08:14:08;;;;;;;12.20;8.60;;;;;;;27.47;47.78;99213.84;79454;1301;3011827;-70
2023/08/22 08:16:36;;;;;;;14.80;8.40;;;;;;;27.53;48.17;99209.92;78288;1300;3026153;-71
2023/08/22 08:19:04;;;;;;;14.70;7.90;;;;;;;27.68;48.32;99210.98;79514;1300;3013585;-66
2023/08/22 08:21:31;;;;;;;13.20;7.40;;;;;;;27.74;49.27;99215.89;79495;1299;3011946;-65
2023/08/22 08:23:59;;;;;;;10.70;6.50;;;;;;;27.57;50.44;99220.70;78191;1300;3057054;-64
2023/08/22 08:26:26;;;;;;;10.70;6.30;;;;;;;27.65;50.12;99227.75;79467;1298;3013535;-64
2023/08/22 08:28:53;;;;;;;11.10;6.20;;;;;;;27.68;50.12;99221.11;79422;1298;3011625;-66
2023/08/22 08:31:21;;;;;;;8.70;5.80;;;;;;;27.73;50.24;99217.43;78151;1300;3052496;-64
2023/08/22 08:33:47;;;;;;;11.90;6.40;;;;;;;27.80;51.02;99208.58;79368;1301;3013569;-67
2023/08/22 08:36:14;;;;;;;11.50;6.40;;;;;;;27.90;50.95;99206.73;79368;1300;3011635;-64
2023/08/22 08:38:42;;;;;;;9.90;6.10;;;;;;;28.03;50.76;99210.94;78109;1298;3028512;-65
2023/08/22 08:41:09;;;;;;;10.30;7.10;;;;;;;28.03;50.84;99210.64;79457;1301;3013509;-67
2023/08/22 08:43:35;;;;;;;11.70;7.40;;;;;;;28.15;50.56;99208.48;79517;1294;3011884;-65
2023/08/22 08:46:03;;;;;;;11.70;7.90;;;;;;;28.26;50.38;99206.61;78078;1300;3026479;-65
2023/08/22 08:48:30;;;;;;;13.10;7.80;;;;;;;28.40;50.48;99205.41;79394;1301;3013236;-63
2023/08/22 08:50:59;;;;;;;17.00;7.80;;;;;;;28.55;50.05;99195.94;79606;1297;3011939;-64
2023/08/22 08:53:26;;;;;;;13.70;8.30;;;;;;;28.70;49.91;99197.66;78207;1301;3058400;-64
2023/08/22 08:55:53;;;;;;;17.20;8.10;;;;;;;28.72;50.31;99192.87;79539;1301;3014257;-63
2023/08/22 08:58:19;;;;;;;17.70;8.70;;;;;;;28.84;50.81;99188.96;79385;1300;3012460;-65
2023/08/22 09:00:47;;;;;;;16.40;8.40;;;;;;;28.91;50.53;99188.86;78233;1307;3029561;-64
2023/08/22 09:03:14;;;;;;;13.20;7.50;;;;;;;28.83;50.66;99193.45;79453;1301;3013291;-66
2023/08/22 09:05:40;;;;;;;13.20;8.00;;;;;;;28.78;50.91;99189.08;79353;1309;3011903;-65
2023/08/22 09:08:14;;;;;;;10.60;7.70;;;;;;;28.81;50.90;99187.27;78270;1301;3028575;-63
2023/08/22 09:10:41;;;;;;;13.10;7.10;;;;;;;28.83;51.16;99181.67;79549;1300;3011426;-65
2023/08/22 09:13:10;;;;;;;10.90;7.60;;;;;;;28.86;51.43;99191.23;78034;1300;3053390;-66
2023/08/22 09:15:37;;;;;;;12.60;7.00;;;;;;;28.82;51.51;99179.07;77185;1300;6154023;-64
2023/08/22 09:18:06;;;;;;;9.80;6.90;;;;;;;28.72;52.11;99180.19;79129;1299;3011955;-62
2023/08/22 09:20:32;;;;;;;11.70;7.20;;;;;;;28.57;52.52;99184.41;81891;1300;3018076;-63
2023/08/22 09:22:59;;;;;;;13.80;7.50;;;;;;;28.55;52.75;99180.72;81309;1300;3011528;-62
2023/08/22 09:25:38;;;;;;;13.20;7.70;;;;;;;28.65;52.53;99173.04;77885;1296;3026924;-64
2023/08/22 09:28:10;;;;;;;10.00;7.30;;;;;;;28.77;52.30;99168.30;80686;1295;3050134;-63
2023/08/22 09:30:39;;;;;;;13.40;7.20;;;;;;;28.92;52.32;99164.73;80441;1296;3011863;-62
2023/08/22 09:33:07;;;;;;;8.80;6.80;;;;;;;29.11;51.86;99164.95;77993;1311;3050039;-62
2023/08/22 09:35:34;;;;;;;9.00;7.40;;;;;;;29.16;52.27;99154.41;79349;1300;3013342;-64
2023/08/22 09:38:07;;;;;;;9.60;7.20;;;;;;;29.21;52.13;99156.33;79365;1300;3011531;-64
2023/08/22 09:40:36;;;;;;;10.60;7.60;;;;;;;29.33;51.60;99153.83;78019;1299;3051652;-65
2023/08/22 09:43:03;;;;;;;10.70;7.60;;;;;;;29.38;50.93;99156.36;79308;1295;3013909;-64
2023/08/22 09:45:31;;;;;;;11.00;7.90;;;;;;;29.17;51.36;99149.02;79212;1300;3013513;-63
2023/08/22 09:47:59;;;;;;;9.70;7.60;;;;;;;29.09;51.26;99146.98;78053;1300;3049777;-62
2023/08/22 09:50:27;;;;;;;11.10;7.70;;;;;;;28.99;51.38;99148.35;79237;1300;3013770;-62
2023/08/22 09:52:55;;;;;;;13.40;8.00;;;;;;;28.87;51.36;99144.34;79381;1298;3012022;-64
2023/08/22 09:55:22;;;;;;;14.70;7.90;;;;;;;28.80;51.77;99137.95;78205;1310;3051826;-67
2023/08/22 09:57:49;;;;;;;11.40;8.00;;;;;;;28.78;52.14;99134.73;79269;1301;3013159;-66
2023/08/22 10:00:16;;;;;;;8.80;7.50;;;;;;;28.76;52.91;99140.64;80000;1300;3012294;-64
2023/08/22 10:02:45;;;;;;;10.80;8.40;;;;;;;28.82;52.66;99142.35;78225;1297;3050088;-64
2023/08/22 10:05:12;;;;;;;10.70;7.20;;;;;;;28.72;53.22;99142.30;79467;1298;3012830;-65
2023/08/22 10:07:39;;;;;;;11.40;8.10;;;;;;;28.63;53.40;99137.77;79447;1298;3012017;-64
2023/08/22 10:10:08;;;;;;;8.50;7.40;;;;;;;28.53;53.68;99138.51;78265;1294;3050973;-64
2023/08/22 10:12:34;;;;;;;9.60;8.20;;;;;;;28.43;54.11;99132.09;79588;1294;3013077;-63
2023/08/22 10:15:04;;;;;;;18.40;8.80;;;;;;;28.43;54.38;99125.94;79363;1298;3013013;-64
2023/08/22 10:17:32;;;;;;;16.20;8.20;;;;;;;28.30;55.13;99137.06;78233;1300;3051022;-63
2023/08/22 10:20:06;;;;;;;16.70;8.30;;;;;;;28.26;55.56;99133.05;79535;1299;3013783;-63
2023/08/22 10:22:34;;;;;;;15.40;9.10;;;;;;;28.27;55.33;99133.85;78141;1298;3070026;-62
2023/08/22 10:25:05;;;;;;;15.60;8.40;;;;;;;28.19;55.58;99135.18;79415;1294;3021341;-64
2023/08/22 10:27:39;;;;;;;12.90;8.90;;;;;;;28.18;55.36;99133.19;78251;1296;3049932;-64
2023/08/22 10:30:11;;;;;;;22.70;8.40;;;;;;;28.17;55.34;99136.23;79619;1294;3011890;-64
2023/08/22 10:32:40;;;;;;;12.90;8.00;;;;;;;28.15;55.19;99131.64;78077;1300;3049897;-64
2023/08/22 10:35:09;;;;;;;11.10;8.10;;;;;;;28.37;54.54;99132.38;79716;1298;3013845;-64
2023/08/22 10:37:47;;;;;;;9.30;7.10;;;;;;;28.64;53.74;99136.99;78194;1296;3067820;-64
2023/08/22 10:40:32;;;;;;;10.10;7.10;;;;;;;28.64;53.47;99136.48;78109;1298;3051928;-64
2023/08/22 10:43:04;;;;;;;14.40;6.80;;;;;;;28.66;52.76;99139.55;78412;1295;3056470;-65
2023/08/22 10:45:47;;;;;;;14.50;7.10;;;;;;;28.66;52.75;99139.64;79514;1297;3012100;-64
2023/08/22 10:48:16;;;;;;;8.90;6.80;;;;;;;28.85;52.74;99126.64;78324;1298;3053499;-65
2023/08/22 10:50:44;;;;;;;13.50;7.30;;;;;;;29.12;51.77;99128.53;79542;1298;3013764;-63
2023/08/22 10:53:15;;;;;;;13.70;6.80;;;;;;;29.22;51.33;99124.44;79494;1298;3011638;-63
2023/08/22 10:55:43;;;;;;;10.40;6.70;;;;;;;29.22;52.02;99132.94;78291;1295;3067471;-64
2023/08/22 10:58:33;;;;;;;19.50;8.10;;;;;;;29.07;52.91;99133.66;79399;1294;3018678;-67
2023/08/22 11:01:04;;;;;;;17.30;8.00;;;;;;;28.78;53.70;99142.67;78322;1295;3049503;-63
2023/08/22 11:03:31;;;;;;;13.00;7.10;;;;;;;28.74;51.99;99134.63;79549;1295;3013085;-63
2023/08/22 11:06:00;;;;;;;15.70;6.80;;;;;;;28.91;51.34;99131.00;78888;1298;3013519;-63
2023/08/22 11:08:27;;;;;;;10.20;7.10;;;;;;;29.11;50.03;99128.67;79398;1298;3012952;-63
2023/08/22 11:10:53;;;;;;;11.30;7.60;;;;;;;29.31;48.96;99127.13;79413;1294;3011612;-65
2023/08/22 11:13:21;;;;;;;13.00;7.20;;;;;;;29.28;48.45;99133.52;78553;1297;3028472;-63
2023/08/22 11:15:49;;;;;;;17.20;7.60;;;;;;;29.31;47.71;99136.48;79356;1301;3013493;-63